Impacts METAR Board
IDs:

KSAN - San Diego Intl Arpt, CA, US

Updated at: 2100 UTC 06 Dec 2019
Potential Impact None Slight Moderate High
Time 06/09Z 06/10Z 06/11Z 06/12Z 06/13Z 06/14Z 06/15Z 06/16Z 06/17Z 06/18Z 06/19Z 06/20Z 06/21Z
Temp56 56 56 56 56 56 57 60 65 67 71 69 68
Dewpt54 54 54 54 53 52 53 51 49 48 47 51 57
Altim30.10 30.11 30.12 30.11 30.10 30.11 30.13 30.15 30.14 30.15 30.15 30.14 30.13
VIS10 10 10 10 10 10 10 10 10 10 10 10 10
CIG250 250 250 250 250 250 250 250 250 250 250 250 250
CoverBKNOVCBKNBKNBKNBKNBKNBKNBKNBKNBKNBKNBKN
FltCatVFRVFRVFRVFRVFRVFRVFRVFRVFRVFRVFRVFRVFR
WX--------------------------
WDir30000000000160220290
WSpd3 0 0 0 0 0 0 0 3 0 5 8 5
WGst-- -- -- -- -- -- -- -- -- -- -- -- --
Raw hourly METARs
KSAN 060851Z 03003KT 10SM BKN250 13/12 A3010 RMK AO2 SLP191 T01330122 55008 $
KSAN 060951Z 00000KT 10SM OVC250 13/12 A3011 RMK AO2 SLP196 T01330122 $
KSAN 061051Z 00000KT 10SM BKN250 13/12 A3012 RMK AO2 SLP198 T01330122 $
KSAN 061151Z 00000KT 10SM BKN250 13/12 A3011 RMK AO2 SLP196 T01330122 10150 20128 50005 $
KSAN 061251Z 00000KT 10SM BKN250 13/12 A3010 RMK AO2 SLP191 T01330117 $
KSAN 061351Z COR 00000KT 10SM BKN250 13/11 A3011 RMK AO2 SLP197 T01330111 $
KSAN 061451Z 00000KT 10SM FEW050 SCT120 BKN250 14/12 A3013 RMK AO2 SLP201 T01390117 53005 $
KSAN 061551Z 00000KT 10SM FEW150 BKN250 16/11 A3015 RMK AO2 SLP208 T01560106 $
KSAN 061651Z VRB03KT 10SM SCT200 BKN250 18/09 A3014 RMK AO2 SLP207 T01830094
KSAN 061751Z 00000KT 10SM FEW200 BKN250 19/09 A3015 RMK AO2 SLP210 T01940089 10200 20122 51009
KSAN 061851Z 16005KT 10SM FEW040 BKN250 22/08 A3015 RMK AO2 SLP208 T02170083
KSAN 061951Z 22008KT 180V260 10SM FEW040 FEW200 BKN250 21/11 A3014 RMK AO2 SLP205 T02060106
KSAN 062051Z 29005KT 10SM FEW040 SCT200 BKN250 20/14 A3013 RMK AO2 SLP203 T02000139 57007



Page loaded:  21:15 UTC  |   01:15 PM Pacific  |   02:15 PM Mountain  |   03:15 PM Central  |   04:15 PM Eastern

 

ADVISORIES

FORECASTS

FORECASTS

OBSERVATIONS

USER TOOLS

ABOUT US